sensor_id;sensor_type;location;lat;lon;timestamp;pressure;altitude;pressure_sealevel;temperature;humidity
23223;BME280;11780;13.904;100.620;2023-12-29T00:02:12;101393.00;;;28.33;54.77
23223;BME280;11780;13.904;100.620;2023-12-29T00:04:43;101396.00;;;28.36;54.70
23223;BME280;11780;13.904;100.620;2023-12-29T00:07:13;101413.63;;;28.35;54.87
23223;BME280;11780;13.904;100.620;2023-12-29T00:09:47;101412.59;;;28.31;54.75
23223;BME280;11780;13.904;100.620;2023-12-29T00:12:18;101416.09;;;28.37;54.62
23223;BME280;11780;13.904;100.620;2023-12-29T00:14:48;101421.88;;;28.35;54.83
23223;BME280;11780;13.904;100.620;2023-12-29T00:17:19;101421.88;;;28.35;54.64
23223;BME280;11780;13.904;100.620;2023-12-29T00:19:49;101430.44;;;28.34;54.76
23223;BME280;11780;13.904;100.620;2023-12-29T00:22:19;101424.13;;;28.33;54.71
23223;BME280;11780;13.904;100.620;2023-12-29T00:24:51;101419.19;;;28.30;54.64
23223;BME280;11780;13.904;100.620;2023-12-29T00:27:33;101418.94;;;28.26;54.76
23223;BME280;11780;13.904;100.620;2023-12-29T00:30:06;101420.56;;;28.27;54.59
23223;BME280;11780;13.904;100.620;2023-12-29T00:32:36;101424.69;;;28.30;54.79
23223;BME280;11780;13.904;100.620;2023-12-29T00:35:08;101423.84;;;28.30;54.72
23223;BME280;11780;13.904;100.620;2023-12-29T00:37:38;101427.16;;;28.32;54.71
23223;BME280;11780;13.904;100.620;2023-12-29T00:40:10;101437.34;;;28.31;54.49
23223;BME280;11780;13.904;100.620;2023-12-29T00:42:41;101440.38;;;28.30;54.57
23223;BME280;11780;13.904;100.620;2023-12-29T00:45:11;101439.25;;;28.31;54.42
23223;BME280;11780;13.904;100.620;2023-12-29T00:47:42;101445.28;;;28.33;54.33
23223;BME280;11780;13.904;100.620;2023-12-29T00:50:14;101456.84;;;28.35;54.36
23223;BME280;11780;13.904;100.620;2023-12-29T00:52:44;101463.16;;;28.35;54.21
23223;BME280;11780;13.904;100.620;2023-12-29T00:55:15;101460.47;;;28.30;54.29
23223;BME280;11780;13.904;100.620;2023-12-29T00:57:46;101479.97;;;28.34;54.07
23223;BME280;11780;13.904;100.620;2023-12-29T01:00:17;101483.84;;;28.27;54.26
23223;BME280;11780;13.904;100.620;2023-12-29T01:02:48;101495.38;;;28.30;54.06
23223;BME280;11780;13.904;100.620;2023-12-29T01:05:20;101489.31;;;28.33;54.41
23223;BME280;11780;13.904;100.620;2023-12-29T01:07:50;101497.09;;;28.25;53.81
23223;BME280;11780;13.904;100.620;2023-12-29T01:10:21;101505.06;;;28.27;53.64
23223;BME280;11780;13.904;100.620;2023-12-29T01:12:52;101505.81;;;28.33;53.70
23223;BME280;11780;13.904;100.620;2023-12-29T01:15:22;101504.19;;;28.32;53.66
23223;BME280;11780;13.904;100.620;2023-12-29T01:17:52;101517.38;;;28.35;53.74
23223;BME280;11780;13.904;100.620;2023-12-29T01:20:23;101531.16;;;28.30;53.27
23223;BME280;11780;13.904;100.620;2023-12-29T01:22:54;101521.81;;;28.31;53.44
23223;BME280;11780;13.904;100.620;2023-12-29T01:25:24;101536.72;;;28.24;53.68
23223;BME280;11780;13.904;100.620;2023-12-29T01:27:55;101532.25;;;28.29;53.69
23223;BME280;11780;13.904;100.620;2023-12-29T01:30:26;101541.06;;;28.31;53.77
23223;BME280;11780;13.904;100.620;2023-12-29T01:32:58;101539.69;;;28.33;53.64
23223;BME280;11780;13.904;100.620;2023-12-29T01:35:29;101547.41;;;28.31;53.63
23223;BME280;11780;13.904;100.620;2023-12-29T01:37:59;101545.22;;;28.28;53.85
23223;BME280;11780;13.904;100.620;2023-12-29T01:40:30;101553.72;;;28.32;53.70
23223;BME280;11780;13.904;100.620;2023-12-29T01:43:01;101557.00;;;28.34;53.82
23223;BME280;11780;13.904;100.620;2023-12-29T01:45:31;101563.00;;;28.41;53.85
23223;BME280;11780;13.904;100.620;2023-12-29T01:48:15;101565.22;;;28.39;53.73
23223;BME280;11780;13.904;100.620;2023-12-29T01:50:46;101567.44;;;28.37;53.63
23223;BME280;11780;13.904;100.620;2023-12-29T01:53:17;101569.66;;;28.35;53.54
23223;BME280;11780;13.904;100.620;2023-12-29T01:56:00;101577.88;;;28.40;53.67
23223;BME280;11780;13.904;100.620;2023-12-29T01:58:31;101578.94;;;28.44;53.62
23223;BME280;11780;13.904;100.620;2023-12-29T02:01:03;101574.81;;;28.47;53.58
23223;BME280;11780;13.904;100.620;2023-12-29T02:03:35;101573.97;;;28.46;53.47
23223;BME280;11780;13.904;100.620;2023-12-29T02:06:08;101576.16;;;28.49;53.70
23223;BME280;11780;13.904;100.620;2023-12-29T02:08:42;101585.19;;;28.55;53.67
23223;BME280;11780;13.904;100.620;2023-12-29T02:11:14;101586.03;;;28.55;53.42
23223;BME280;11780;13.904;100.620;2023-12-29T02:13:45;101580.78;;;28.54;53.41
23223;BME280;11780;13.904;100.620;2023-12-29T02:16:35;101578.34;;;28.52;53.74
23223;BME280;11780;13.904;100.620;2023-12-29T02:21:58;101586.06;;;28.50;53.56
23223;BME280;11780;13.904;100.620;2023-12-29T02:24:29;101583.06;;;28.47;53.48
23223;BME280;11780;13.904;100.620;2023-12-29T02:27:31;101581.66;;;28.49;53.53
23223;BME280;11780;13.904;100.620;2023-12-29T02:33:18;101586.78;;;28.61;53.79
23223;BME280;11780;13.904;100.620;2023-12-29T02:35:52;101585.94;;;28.66;53.74
23223;BME280;11780;13.904;100.620;2023-12-29T02:38:26;101571.88;;;28.67;53.63
23223;BME280;11780;13.904;100.620;2023-12-29T02:41:00;101575.41;;;28.73;54.10
23223;BME280;11780;13.904;100.620;2023-12-29T02:43:33;101575.41;;;28.73;53.36
23223;BME280;11780;13.904;100.620;2023-12-29T02:46:04;101575.97;;;28.75;53.30
23223;BME280;11780;13.904;100.620;2023-12-29T02:48:34;101580.94;;;28.73;53.59
23223;BME280;11780;13.904;100.620;2023-12-29T02:51:05;101569.91;;;28.73;53.83
23223;BME280;11780;13.904;100.620;2023-12-29T02:53:38;101569.34;;;28.76;53.95
23223;BME280;11780;13.904;100.620;2023-12-29T02:56:09;101566.56;;;28.81;54.09
23223;BME280;11780;13.904;100.620;2023-12-29T02:58:39;101567.34;;;28.82;53.74
23223;BME280;11780;13.904;100.620;2023-12-29T03:01:13;101553.31;;;28.83;53.54
23223;BME280;11780;13.904;100.620;2023-12-29T03:03:43;101561.59;;;28.83;53.67
23223;BME280;11780;13.904;100.620;2023-12-29T03:06:14;101554.13;;;28.84;53.69
23223;BME280;11780;13.904;100.620;2023-12-29T03:08:44;101562.13;;;28.85;53.44
23223;BME280;11780;13.904;100.620;2023-12-29T03:11:15;101560.47;;;28.84;53.56
23223;BME280;11780;13.904;100.620;2023-12-29T03:13:45;101559.06;;;28.87;53.64
23223;BME280;11780;13.904;100.620;2023-12-29T03:16:16;101553.56;;;28.87;53.25
23223;BME280;11780;13.904;100.620;2023-12-29T03:18:47;101548.88;;;28.88;53.48
23223;BME280;11780;13.904;100.620;2023-12-29T03:21:18;101535.63;;;28.90;53.58
23223;BME280;11780;13.904;100.620;2023-12-29T03:23:48;101545.25;;;28.92;53.62
23223;BME280;11780;13.904;100.620;2023-12-29T03:26:19;101539.44;;;28.94;53.66
23223;BME280;11780;13.904;100.620;2023-12-29T03:28:50;101544.13;;;28.93;53.96
23223;BME280;11780;13.904;100.620;2023-12-29T03:31:20;101538.88;;;28.97;53.87
23223;BME280;11780;13.904;100.620;2023-12-29T03:33:51;101532.78;;;29.00;53.96
23223;BME280;11780;13.904;100.620;2023-12-29T03:36:21;101523.13;;;28.97;54.36
23223;BME280;11780;13.904;100.620;2023-12-29T03:38:51;101518.75;;;28.96;54.51
23223;BME280;11780;13.904;100.620;2023-12-29T03:41:23;101515.41;;;28.99;54.48
23223;BME280;11780;13.904;100.620;2023-12-29T03:43:53;101520.66;;;29.01;55.07
23223;BME280;11780;13.904;100.620;2023-12-29T03:46:26;101525.06;;;29.02;55.05
23223;BME280;11780;13.904;100.620;2023-12-29T03:48:57;101520.34;;;29.02;54.59
23223;BME280;11780;13.904;100.620;2023-12-29T03:51:28;101515.94;;;29.01;54.83
23223;BME280;11780;13.904;100.620;2023-12-29T03:53:58;101510.75;;;29.00;54.44
23223;BME280;11780;13.904;100.620;2023-12-29T03:56:29;101503.81;;;29.02;54.12
23223;BME280;11780;13.904;100.620;2023-12-29T03:58:59;101498.00;;;29.04;53.89
23223;BME280;11780;13.904;100.620;2023-12-29T04:01:33;101498.00;;;29.04;54.49
23223;BME280;11780;13.904;100.620;2023-12-29T04:04:04;101490.56;;;29.05;53.95
23223;BME280;11780;13.904;100.620;2023-12-29T04:06:35;101493.03;;;29.06;53.46
23223;BME280;11780;13.904;100.620;2023-12-29T04:09:05;101482.84;;;29.07;53.80
23223;BME280;11780;13.904;100.620;2023-12-29T04:11:36;101478.16;;;29.07;53.93
23223;BME280;11780;13.904;100.620;2023-12-29T04:14:06;101479.50;;;29.10;53.84
23223;BME280;11780;13.904;100.620;2023-12-29T04:16:38;101464.38;;;29.07;53.49
23223;BME280;11780;13.904;100.620;2023-12-29T04:19:09;101456.63;;;29.09;53.52
23223;BME280;11780;13.904;100.620;2023-12-29T04:21:42;101455.25;;;29.12;53.30
23223;BME280;11780;13.904;100.620;2023-12-29T04:24:13;101452.19;;;29.13;53.14
23223;BME280;11780;13.904;100.620;2023-12-29T04:26:44;101449.75;;;29.12;53.25
23223;BME280;11780;13.904;100.620;2023-12-29T04:29:14;101452.19;;;29.13;53.12
23223;BME280;11780;13.904;100.620;2023-12-29T04:31:48;101446.69;;;29.13;54.03
23223;BME280;11780;13.904;100.620;2023-12-29T04:34:18;101434.81;;;29.13;53.72
23223;BME280;11780;13.904;100.620;2023-12-29T04:36:49;101432.59;;;29.15;54.29
23223;BME280;11780;13.904;100.620;2023-12-29T04:39:20;101431.78;;;29.14;53.53
23223;BME280;11780;13.904;100.620;2023-12-29T04:41:50;101432.31;;;29.16;53.88
23223;BME280;11780;13.904;100.620;2023-12-29T04:44:21;101424.06;;;29.16;53.85
23223;BME280;11780;13.904;100.620;2023-12-29T04:46:51;101421.28;;;29.16;53.99
23223;BME280;11780;13.904;100.620;2023-12-29T04:49:21;101417.44;;;29.17;53.08
23223;BME280;11780;13.904;100.620;2023-12-29T04:51:52;101411.09;;;29.17;53.31
23223;BME280;11780;13.904;100.620;2023-12-29T04:54:23;101416.31;;;29.19;53.86
23223;BME280;11780;13.904;100.620;2023-12-29T04:56:54;101400.28;;;29.21;54.10
23223;BME280;11780;13.904;100.620;2023-12-29T04:59:25;101404.69;;;29.22;53.96
23223;BME280;11780;13.904;100.620;2023-12-29T05:01:55;101410.13;;;29.27;54.45
23223;BME280;11780;13.904;100.620;2023-12-29T05:04:26;101396.03;;;29.28;54.37
23223;BME280;11780;13.904;100.620;2023-12-29T05:06:56;101390.25;;;29.30;54.01
23223;BME280;11780;13.904;100.620;2023-12-29T05:09:26;101391.59;;;29.32;54.74
23223;BME280;11780;13.904;100.620;2023-12-29T05:11:57;101383.03;;;29.34;53.94
23223;BME280;11780;13.904;100.620;2023-12-29T05:14:28;101374.78;;;29.34;52.91
23223;BME280;11780;13.904;100.620;2023-12-29T05:16:58;101369.78;;;29.36;53.40
23223;BME280;11780;13.904;100.620;2023-12-29T05:19:28;101367.03;;;29.36;52.96
23223;BME280;11780;13.904;100.620;2023-12-29T05:21:59;101364.00;;;29.38;52.40
23223;BME280;11780;13.904;100.620;2023-12-29T05:24:30;101362.03;;;29.38;52.71
23223;BME280;11780;13.904;100.620;2023-12-29T05:27:00;101350.44;;;29.41;52.80
23223;BME280;11780;13.904;100.620;2023-12-29T05:29:31;101347.66;;;29.41;52.66
23223;BME280;11780;13.904;100.620;2023-12-29T05:32:01;101346.25;;;29.44;52.81
23223;BME280;11780;13.904;100.620;2023-12-29T05:34:32;101346.50;;;29.47;52.14
23223;BME280;11780;13.904;100.620;2023-12-29T05:37:03;101348.41;;;29.47;52.53
23223;BME280;11780;13.904;100.620;2023-12-29T05:39:34;101347.00;;;29.50;52.35
23223;BME280;11780;13.904;100.620;2023-12-29T05:42:04;101342.31;;;29.50;51.93
23223;BME280;11780;13.904;100.620;2023-12-29T05:44:38;101338.94;;;29.53;51.83
23223;BME280;11780;13.904;100.620;2023-12-29T05:47:09;101323.84;;;29.51;51.74
23223;BME280;11780;13.904;100.620;2023-12-29T05:49:39;101320.78;;;29.52;51.62
23223;BME280;11780;13.904;100.620;2023-12-29T05:52:10;101318.81;;;29.53;51.60
23223;BME280;11780;13.904;100.620;2023-12-29T05:54:41;101312.19;;;29.54;51.68
23223;BME280;11780;13.904;100.620;2023-12-29T05:57:13;101306.69;;;29.54;51.89
23223;BME280;11780;13.904;100.620;2023-12-29T05:59:43;101297.28;;;29.55;51.30
23223;BME280;11780;13.904;100.620;2023-12-29T06:02:14;101297.28;;;29.55;51.19
23223;BME280;11780;13.904;100.620;2023-12-29T06:04:45;101287.09;;;29.55;51.02
23223;BME280;11780;13.904;100.620;2023-12-29T06:07:15;101282.38;;;29.56;51.12
23223;BME280;11780;13.904;100.620;2023-12-29T06:09:46;101276.06;;;29.55;51.13
23223;BME280;11780;13.904;100.620;2023-12-29T06:12:16;101265.84;;;29.56;51.28
23223;BME280;11780;13.904;100.620;2023-12-29T06:14:47;101261.97;;;29.57;51.17
23223;BME280;11780;13.904;100.620;2023-12-29T06:17:17;101258.09;;;29.58;51.53
23223;BME280;11780;13.904;100.620;2023-12-29T06:19:48;101241.88;;;29.56;51.53
23223;BME280;11780;13.904;100.620;2023-12-29T06:22:18;101244.00;;;29.59;51.23
23223;BME280;11780;13.904;100.620;2023-12-29T06:24:49;101238.50;;;29.59;51.36
23223;BME280;11780;13.904;100.620;2023-12-29T06:27:20;101229.41;;;29.59;51.65
23223;BME280;11780;13.904;100.620;2023-12-29T06:29:50;101225.22;;;29.61;51.62
23223;BME280;11780;13.904;100.620;2023-12-29T06:32:21;101233.22;;;29.63;51.20
23223;BME280;11780;13.904;100.620;2023-12-29T06:34:51;101223.00;;;29.63;51.34
23223;BME280;11780;13.904;100.620;2023-12-29T06:37:22;101213.91;;;29.63;51.48
23223;BME280;11780;13.904;100.620;2023-12-29T06:39:52;101210.13;;;29.59;52.22
23223;BME280;11780;13.904;100.620;2023-12-29T07:28:12;101150.59;;;29.11;53.14
23223;BME280;11780;13.904;100.620;2023-12-29T07:30:42;101139.78;;;29.14;52.39
23223;BME280;11780;13.904;100.620;2023-12-29T07:33:14;101139.69;;;29.20;52.25
23223;BME280;11780;13.904;100.620;2023-12-29T07:35:44;101134.28;;;29.28;52.02
23223;BME280;11780;13.904;100.620;2023-12-29T07:38:15;101131.75;;;29.32;51.75
23223;BME280;11780;13.904;100.620;2023-12-29T07:40:45;101133.53;;;29.42;51.59
23223;BME280;11780;13.904;100.620;2023-12-29T07:43:17;101130.66;;;29.47;51.49
23223;BME280;11780;13.904;100.620;2023-12-29T07:45:48;101127.84;;;29.52;51.65
23223;BME280;11780;13.904;100.620;2023-12-29T07:48:18;101124.97;;;29.57;51.08
23223;BME280;11780;13.904;100.620;2023-12-29T07:50:49;101123.53;;;29.60;50.94
23223;BME280;11780;13.904;100.620;2023-12-29T07:53:19;101123.75;;;29.63;50.86
23223;BME280;11780;13.904;100.620;2023-12-29T07:55:49;101121.19;;;29.67;51.16
23223;BME280;11780;13.904;100.620;2023-12-29T07:58:22;101118.94;;;29.69;50.97
23223;BME280;11780;13.904;100.620;2023-12-29T08:00:52;101116.41;;;29.73;50.81
23223;BME280;11780;13.904;100.620;2023-12-29T08:03:23;101120.47;;;29.75;50.54
23223;BME280;11780;13.904;100.620;2023-12-29T08:05:54;101115.47;;;29.77;50.58
23223;BME280;11780;13.904;100.620;2023-12-29T08:08:24;101112.91;;;29.81;50.32
23223;BME280;11780;13.904;100.620;2023-12-29T08:10:55;101101.09;;;29.81;50.03
23223;BME280;11780;13.904;100.620;2023-12-29T08:13:25;101100.44;;;29.84;50.63
23223;BME280;11780;13.904;100.620;2023-12-29T08:15:56;101095.75;;;29.84;49.94
23223;BME280;11780;13.904;100.620;2023-12-29T08:18:27;101104.75;;;29.90;49.74
23223;BME280;11780;13.904;100.620;2023-12-29T08:20:58;101087.38;;;29.89;49.37
23223;BME280;11780;13.904;100.620;2023-12-29T08:23:29;101103.31;;;29.92;49.87
23223;BME280;11780;13.904;100.620;2023-12-29T08:26:02;101088.38;;;29.93;49.66
23223;BME280;11780;13.904;100.620;2023-12-29T08:28:33;101086.47;;;29.94;49.58
23223;BME280;11780;13.904;100.620;2023-12-29T08:31:03;101084.50;;;29.95;49.45
23223;BME280;11780;13.904;100.620;2023-12-29T08:33:34;101081.47;;;29.96;49.74
23223;BME280;11780;13.904;100.620;2023-12-29T08:36:06;101086.16;;;29.96;49.53
23223;BME280;11780;13.904;100.620;2023-12-29T08:38:37;101085.38;;;29.95;50.03
23223;BME280;11780;13.904;100.620;2023-12-29T08:41:08;101081.47;;;29.96;49.99
23223;BME280;11780;13.904;100.620;2023-12-29T08:43:38;101083.94;;;29.98;50.26
23223;BME280;11780;13.904;100.620;2023-12-29T08:46:08;101085.88;;;29.97;50.27
23223;BME280;11780;13.904;100.620;2023-12-29T08:48:39;101081.34;;;30.01;50.51
23223;BME280;11780;13.904;100.620;2023-12-29T08:51:10;101083.00;;;30.02;50.55
23223;BME280;11780;13.904;100.620;2023-12-29T08:53:40;101080.56;;;30.01;50.65
23223;BME280;11780;13.904;100.620;2023-12-29T08:56:11;101080.22;;;30.02;50.95
23223;BME280;11780;13.904;100.620;2023-12-29T08:58:41;101081.34;;;30.01;50.92
23223;BME280;11780;13.904;100.620;2023-12-29T09:01:12;101078.59;;;30.01;50.95
23223;BME280;11780;13.904;100.620;2023-12-29T09:03:42;101081.06;;;30.03;51.19
23223;BME280;11780;13.904;100.620;2023-12-29T09:06:13;101082.69;;;30.04;51.19
23223;BME280;11780;13.904;100.620;2023-12-29T09:08:44;101082.69;;;30.04;51.46
23223;BME280;11780;13.904;100.620;2023-12-29T09:11:14;101087.38;;;30.03;51.45
23223;BME280;11780;13.904;100.620;2023-12-29T09:13:44;101079.94;;;30.04;51.54
23223;BME280;11780;13.904;100.620;2023-12-29T09:16:15;101081.56;;;30.05;51.66
23223;BME280;11780;13.904;100.620;2023-12-29T09:18:46;101085.94;;;30.06;51.56
23223;BME280;11780;13.904;100.620;2023-12-29T09:21:16;101079.28;;;30.07;51.40
23223;BME280;11780;13.904;100.620;2023-12-29T09:23:47;101086.78;;;30.06;51.27
23223;BME280;11780;13.904;100.620;2023-12-29T09:26:17;101092.28;;;30.06;51.54
23223;BME280;11780;13.904;100.620;2023-12-29T09:28:48;101084.00;;;30.06;51.51
23223;BME280;11780;13.904;100.620;2023-12-29T09:31:18;101088.41;;;30.07;51.72
23223;BME280;11780;13.904;100.620;2023-12-29T09:33:48;101093.91;;;30.07;51.45
23223;BME280;11780;13.904;100.620;2023-12-29T09:36:19;101084.81;;;30.07;51.81
23223;BME280;11780;13.904;100.620;2023-12-29T09:38:50;101089.22;;;30.08;51.64
23223;BME280;11780;13.904;100.620;2023-12-29T09:41:23;101084.53;;;30.08;51.61
23223;BME280;11780;13.904;100.620;2023-12-29T09:43:56;101093.09;;;30.07;51.61
23223;BME280;11780;13.904;100.620;2023-12-29T09:46:28;101091.47;;;30.06;51.79
23223;BME280;11780;13.904;100.620;2023-12-29T09:49:03;101086.25;;;30.04;51.91
23223;BME280;11780;13.904;100.620;2023-12-29T09:51:37;101096.69;;;30.07;51.84
23223;BME280;11780;13.904;100.620;2023-12-29T09:54:08;101092.28;;;30.06;51.88
23223;BME280;11780;13.904;100.620;2023-12-29T09:56:41;101107.19;;;30.05;52.04
23223;BME280;11780;13.904;100.620;2023-12-29T09:59:12;101103.00;;;30.08;52.21
23223;BME280;11780;13.904;100.620;2023-12-29T10:01:45;101098.81;;;30.11;52.25
23223;BME280;11780;13.904;100.620;2023-12-29T10:04:17;101098.00;;;30.10;51.92
23223;BME280;11780;13.904;100.620;2023-12-29T10:06:49;101101.59;;;30.11;51.99
23223;BME280;11780;13.904;100.620;2023-12-29T10:09:21;101102.38;;;30.11;51.97
23223;BME280;11780;13.904;100.620;2023-12-29T10:11:51;101100.47;;;30.12;52.37
23223;BME280;11780;13.904;100.620;2023-12-29T10:14:26;101112.63;;;30.11;52.07
23223;BME280;11780;13.904;100.620;2023-12-29T10:17:09;101108.22;;;30.10;52.58
23223;BME280;11780;13.904;100.620;2023-12-29T10:19:50;101117.00;;;30.12;52.45
23223;BME280;11780;13.904;100.620;2023-12-29T10:25:06;101124.78;;;30.10;51.85
23223;BME280;11780;13.904;100.620;2023-12-29T10:27:37;101124.78;;;30.10;51.95
23223;BME280;11780;13.904;100.620;2023-12-29T10:30:10;101121.78;;;30.06;52.26
23223;BME280;11780;13.904;100.620;2023-12-29T10:32:55;101124.78;;;30.10;52.18
23223;BME280;11780;13.904;100.620;2023-12-29T10:35:26;101120.38;;;30.08;52.72
23223;BME280;11780;13.904;100.620;2023-12-29T10:38:24;101121.19;;;30.09;52.49
23223;BME280;11780;13.904;100.620;2023-12-29T10:40:54;101122.03;;;30.10;52.32
23223;BME280;11780;13.904;100.620;2023-12-29T10:43:25;101114.03;;;30.08;52.09
23223;BME280;11780;13.904;100.620;2023-12-29T10:46:08;101122.03;;;30.10;52.63
23223;BME280;11780;13.904;100.620;2023-12-29T10:48:40;101128.66;;;30.08;52.26
23223;BME280;11780;13.904;100.620;2023-12-29T10:51:10;101135.81;;;30.10;52.18
23223;BME280;11780;13.904;100.620;2023-12-29T10:53:41;101136.94;;;30.08;52.38
23223;BME280;11780;13.904;100.620;2023-12-29T10:56:18;101133.34;;;30.08;52.21
23223;BME280;11780;13.904;100.620;2023-12-29T10:59:03;101136.94;;;30.08;52.75
23223;BME280;11780;13.904;100.620;2023-12-29T11:01:35;101136.94;;;30.08;52.62
23223;BME280;11780;13.904;100.620;2023-12-29T11:04:06;101135.31;;;30.07;52.24
23223;BME280;11780;13.904;100.620;2023-12-29T11:06:43;101138.06;;;30.07;52.36
23223;BME280;11780;13.904;100.620;2023-12-29T11:09:30;101133.34;;;30.08;52.55
23223;BME280;11780;13.904;100.620;2023-12-29T11:12:03;101136.09;;;30.08;52.61
23223;BME280;11780;13.904;100.620;2023-12-29T11:14:33;101140.81;;;30.07;52.08
23223;BME280;11780;13.904;100.620;2023-12-29T11:17:05;101143.56;;;30.07;52.43
23223;BME280;11780;13.904;100.620;2023-12-29T11:19:37;101158.50;;;30.06;52.67
23223;BME280;11780;13.904;100.620;2023-12-29T11:22:08;101161.25;;;30.06;52.39
23223;BME280;11780;13.904;100.620;2023-12-29T11:24:40;101168.22;;;30.04;52.76
23223;BME280;11780;13.904;100.620;2023-12-29T11:27:10;101166.25;;;30.04;52.69
23223;BME280;11780;13.904;100.620;2023-12-29T11:29:42;101166.25;;;30.04;52.42
23223;BME280;11780;13.904;100.620;2023-12-29T11:32:20;101161.84;;;30.03;52.66
23223;BME280;11780;13.904;100.620;2023-12-29T11:34:55;101171.78;;;30.04;52.42
23223;BME280;11780;13.904;100.620;2023-12-29T11:40:29;101185.56;;;30.04;52.88
23223;BME280;11780;13.904;100.620;2023-12-29T11:43:05;101189.97;;;30.05;53.65
23223;BME280;11780;13.904;100.620;2023-12-29T11:45:38;101194.34;;;30.06;53.73
23223;BME280;11780;13.904;100.620;2023-12-29T11:48:10;101199.34;;;30.04;53.58
23223;BME280;11780;13.904;100.620;2023-12-29T11:50:41;101200.19;;;30.05;53.74
23223;BME280;11780;13.904;100.620;2023-12-29T11:53:31;101203.75;;;30.05;54.23
23223;BME280;11780;13.904;100.620;2023-12-29T11:56:14;101211.72;;;30.07;53.67
23223;BME280;11780;13.904;100.620;2023-12-29T11:58:45;101210.91;;;30.06;53.24
23223;BME280;11780;13.904;100.620;2023-12-29T12:01:34;101219.88;;;29.98;54.27
23223;BME280;11780;13.904;100.620;2023-12-29T12:04:41;101215.25;;;29.93;54.43
23223;BME280;11780;13.904;100.620;2023-12-29T12:12:54;101224.25;;;29.85;54.78
23223;BME280;11780;13.904;100.620;2023-12-29T12:18:03;101236.69;;;29.83;54.96
23223;BME280;11780;13.904;100.620;2023-12-29T12:20:37;101243.03;;;29.83;54.48
23223;BME280;11780;13.904;100.620;2023-12-29T12:23:17;101247.03;;;29.91;54.76
23223;BME280;11780;13.904;100.620;2023-12-29T12:25:49;101243.97;;;29.92;54.66
23223;BME280;11780;13.904;100.620;2023-12-29T12:28:27;101246.19;;;29.90;54.66
23223;BME280;11780;13.904;100.620;2023-12-29T12:31:08;101248.91;;;29.96;54.86
23223;BME280;11780;13.904;100.620;2023-12-29T12:33:39;101252.56;;;29.91;54.51
23223;BME280;11780;13.904;100.620;2023-12-29T12:36:09;101264.19;;;29.88;54.59
23223;BME280;11780;13.904;100.620;2023-12-29T12:38:51;101265.31;;;29.87;55.01
23223;BME280;11780;13.904;100.620;2023-12-29T12:41:22;101267.53;;;29.85;54.89
23223;BME280;11780;13.904;100.620;2023-12-29T12:44:10;101273.06;;;29.85;54.96
23223;BME280;11780;13.904;100.620;2023-12-29T12:46:51;101270.94;;;29.82;54.70
23223;BME280;11780;13.904;100.620;2023-12-29T12:49:29;101276.13;;;29.83;54.95
23223;BME280;11780;13.904;100.620;2023-12-29T12:52:00;101284.09;;;29.85;55.08
23223;BME280;11780;13.904;100.620;2023-12-29T12:54:31;101294.31;;;29.84;55.11
23223;BME280;11780;13.904;100.620;2023-12-29T12:57:04;101292.09;;;29.86;54.95
23223;BME280;11780;13.904;100.620;2023-12-29T12:59:34;101288.72;;;29.89;54.67
23223;BME280;11780;13.904;100.620;2023-12-29T13:02:07;101288.09;;;29.92;54.78
23223;BME280;11780;13.904;100.620;2023-12-29T13:04:41;101290.84;;;29.92;54.65
23223;BME280;11780;13.904;100.620;2023-12-29T13:07:15;101299.97;;;29.93;54.84
23223;BME280;11780;13.904;100.620;2023-12-29T13:09:47;101300.19;;;29.97;54.71
23223;BME280;11780;13.904;100.620;2023-12-29T13:12:21;101303.78;;;29.97;54.92
23223;BME280;11780;13.904;100.620;2023-12-29T13:14:52;101302.63;;;29.98;54.77
23223;BME280;11780;13.904;100.620;2023-12-29T13:17:23;101305.63;;;30.02;54.67
23223;BME280;11780;13.904;100.620;2023-12-29T13:19:57;101309.19;;;30.02;54.60
23223;BME280;11780;13.904;100.620;2023-12-29T13:22:28;101314.69;;;30.02;54.71
23223;BME280;11780;13.904;100.620;2023-12-29T13:24:58;101317.47;;;30.02;54.83
23223;BME280;11780;13.904;100.620;2023-12-29T13:27:30;101313.91;;;30.02;54.77
23223;BME280;11780;13.904;100.620;2023-12-29T13:30:00;101315.81;;;30.01;54.99
23223;BME280;11780;13.904;100.620;2023-12-29T13:32:31;101313.91;;;30.02;54.76
23223;BME280;11780;13.904;100.620;2023-12-29T13:38:07;101319.69;;;30.00;55.22
23223;BME280;11780;13.904;100.620;2023-12-29T13:40:47;101315.00;;;30.01;54.89
23223;BME280;11780;13.904;100.620;2023-12-29T13:43:24;101319.19;;;29.98;55.06
23223;BME280;11780;13.904;100.620;2023-12-29T13:45:55;101321.94;;;29.98;55.06
23223;BME280;11780;13.904;100.620;2023-12-29T13:48:27;101322.47;;;30.00;55.27
23223;BME280;11780;13.904;100.620;2023-12-29T13:50:58;101320.81;;;29.99;55.54
23223;BME280;11780;13.904;100.620;2023-12-29T13:53:29;101332.47;;;29.96;55.54
23223;BME280;11780;13.904;100.620;2023-12-29T13:56:10;101332.75;;;29.95;55.94
23223;BME280;11780;13.904;100.620;2023-12-29T13:58:40;101334.97;;;29.92;56.05
23223;BME280;11780;13.904;100.620;2023-12-29T14:01:12;101338.66;;;29.88;55.93
23223;BME280;11780;13.904;100.620;2023-12-29T14:03:55;101330.91;;;29.90;55.91
23223;BME280;11780;13.904;100.620;2023-12-29T14:06:36;101334.56;;;29.85;56.26